createdAt,value
2022-09-05T00:00:14.874Z,71.66
2022-09-05T00:02:48.792Z,71.95
2022-09-05T00:05:34.030Z,72.10
2022-09-05T00:08:11.411Z,72.14
2022-09-05T00:11:39.489Z,72.06
2022-09-05T00:13:44.815Z,72.24
2022-09-05T00:16:30.145Z,73.21
2022-09-05T00:24:33.003Z,72.94
2022-09-05T00:24:36.937Z,72.89
2022-09-05T00:25:31.412Z,74.12
2022-09-05T00:28:01.189Z,74.07
2022-09-05T00:31:50.793Z,73.64
2022-09-05T00:34:17.539Z,73.38
2022-09-05T00:36:45.735Z,73.46
2022-09-05T00:39:21.500Z,73.39
2022-09-05T00:41:51.408Z,73.80
2022-09-05T00:44:26.483Z,73.88
2022-09-05T00:47:01.905Z,74.19
2022-09-05T00:49:38.664Z,74.36
2022-09-05T00:52:28.003Z,74.28
2022-09-05T00:55:37.876Z,74.48
2022-09-05T00:58:34.030Z,74.87
2022-09-05T01:01:12.085Z,74.97
2022-09-05T01:03:53.812Z,75.06
2022-09-05T01:06:30.672Z,74.28
2022-09-05T01:09:24.938Z,74.88
2022-09-05T01:12:06.776Z,75.55
2022-09-05T01:14:58.612Z,75.41
2022-09-05T01:17:37.358Z,75.58
2022-09-05T01:20:18.491Z,75.82
2022-09-05T01:23:08.525Z,74.98
2022-09-05T01:26:17.640Z,75.76
2022-09-05T01:29:18.775Z,75.98
2022-09-05T01:32:20.928Z,76.14
2022-09-05T01:34:56.052Z,76.32
2022-09-05T01:37:46.794Z,76.01
2022-09-05T01:40:26.906Z,75.48
2022-09-05T01:43:25.632Z,75.99
2022-09-05T01:46:22.259Z,75.85
2022-09-05T01:49:08.860Z,76.31
2022-09-05T01:52:00.590Z,75.74
2022-09-05T01:55:01.266Z,75.86
2022-09-05T01:57:40.673Z,75.44
2022-09-05T02:00:47.297Z,76.19
2022-09-05T02:03:19.416Z,76.71
2022-09-05T02:06:24.552Z,76.50
2022-09-05T02:09:10.244Z,76.64
2022-09-05T02:11:57.538Z,77.09
2022-09-05T02:15:16.570Z,76.43
2022-09-05T02:17:50.667Z,76.69
2022-09-05T02:20:43.811Z,77.72
2022-09-05T02:23:40.244Z,77.25
2022-09-05T02:26:18.062Z,76.88
2022-09-05T02:29:00.173Z,77.17
2022-09-05T02:31:47.880Z,76.81
2022-09-05T02:34:46.490Z,76.81
2022-09-05T02:39:05.435Z,77.28
2022-09-05T02:45:09.339Z,77.48
2022-09-05T02:45:18.371Z,77.71
2022-09-05T02:47:22.695Z,77.72
2022-09-05T02:52:19.857Z,77.12
2022-09-05T02:57:29.755Z,77.78
2022-09-05T02:57:41.152Z,77.89
2022-09-05T02:59:36.136Z,77.13
2022-09-05T03:02:31.093Z,77.02
2022-09-05T03:05:20.511Z,77.69
2022-09-05T03:08:07.744Z,77.36
2022-09-05T03:10:55.683Z,77.18
2022-09-05T03:13:54.346Z,77.21
2022-09-05T03:16:47.136Z,76.91
2022-09-05T03:19:56.888Z,76.93
2022-09-05T03:22:56.849Z,77.08
2022-09-05T03:25:35.350Z,77.12
2022-09-05T03:28:08.009Z,76.75
2022-09-05T03:30:52.939Z,76.99
2022-09-05T03:33:54.256Z,77.30
2022-09-05T03:37:00.877Z,76.60
2022-09-05T03:39:39.550Z,77.05
2022-09-05T03:42:31.325Z,77.16
2022-09-05T03:45:29.854Z,77.10
2022-09-05T03:48:33.586Z,76.91
2022-09-05T03:57:04.925Z,77.09
2022-09-05T03:57:17.819Z,77.79
2022-09-05T03:57:47.940Z,77.50
2022-09-05T04:00:25.881Z,77.60
2022-09-05T04:07:04.966Z,77.67
2022-09-05T04:08:16.454Z,77.76
2022-09-05T04:09:05.825Z,78.28
2022-09-05T04:11:40.002Z,77.58
2022-09-05T04:14:22.624Z,77.44
2022-09-05T04:16:53.498Z,77.82
2022-09-05T04:19:24.072Z,78.00
2022-09-05T04:22:19.877Z,78.08
2022-09-05T04:25:04.469Z,78.04
2022-09-05T04:28:02.177Z,77.37
2022-09-05T04:30:44.189Z,78.17
2022-09-05T04:33:36.965Z,78.23
2022-09-05T04:36:23.774Z,77.90
2022-09-05T04:39:09.670Z,77.77
2022-09-05T04:41:43.042Z,77.70
2022-09-05T04:44:17.254Z,78.15
2022-09-05T04:46:53.694Z,78.37
2022-09-05T04:49:29.186Z,77.89
2022-09-05T04:52:31.485Z,77.86
2022-09-05T04:55:01.448Z,77.48
2022-09-05T04:57:53.678Z,76.81
2022-09-05T05:05:58.908Z,77.08
2022-09-05T05:06:14.075Z,76.03
2022-09-05T05:06:45.376Z,76.81
2022-09-05T05:09:39.137Z,76.57
2022-09-05T05:17:53.679Z,76.89
2022-09-05T05:18:09.412Z,77.11
2022-09-05T05:18:39.651Z,75.92
2022-09-05T05:21:08.141Z,76.12
2022-09-05T05:23:39.926Z,76.31
2022-09-05T05:26:18.680Z,75.47
2022-09-05T05:29:09.969Z,75.33
2022-09-05T05:31:40.622Z,75.61
2022-09-05T05:34:24.614Z,74.95
2022-09-05T05:37:22.912Z,74.76
2022-09-05T05:40:07.310Z,74.60
2022-09-05T05:42:35.553Z,74.91
2022-09-05T05:45:02.813Z,74.01
2022-09-05T05:47:35.470Z,74.16
2022-09-05T05:50:11.437Z,73.76
2022-09-05T05:52:51.008Z,73.47
2022-09-05T05:55:52.845Z,73.39
2022-09-05T05:58:44.108Z,73.87
2022-09-05T06:01:38.877Z,72.67
2022-09-05T06:04:44.781Z,72.70
2022-09-05T06:07:25.469Z,72.80
2022-09-05T06:14:49.842Z,72.65
2022-09-05T06:15:04.095Z,72.75
2022-09-05T06:16:27.452Z,72.67
2022-09-05T06:19:00.030Z,73.04
2022-09-05T06:22:10.315Z,72.39
2022-09-05T06:25:17.206Z,71.34
2022-09-05T06:28:19.044Z,71.12
2022-09-05T06:30:57.195Z,71.30
2022-09-05T06:34:04.084Z,70.69
2022-09-05T06:36:58.085Z,70.60
2022-09-05T06:39:58.655Z,69.97
2022-09-05T06:42:52.341Z,69.80
2022-09-05T06:45:40.061Z,69.15
2022-09-05T06:48:46.045Z,69.70
2022-09-05T06:51:49.473Z,69.63
2022-09-05T06:54:48.577Z,69.29
2022-09-05T06:57:54.928Z,69.85
2022-09-05T07:00:27.051Z,69.92
2022-09-05T07:03:00.586Z,70.39
2022-09-05T07:05:40.018Z,70.85
2022-09-05T07:08:36.262Z,71.22
2022-09-05T07:11:35.645Z,71.46
2022-09-05T07:14:30.278Z,72.12
2022-09-05T07:17:16.847Z,71.07
2022-09-05T07:19:49.704Z,71.36
2022-09-05T07:22:47.058Z,71.13
2022-09-05T07:25:18.381Z,70.54
2022-09-05T07:28:26.552Z,70.11
2022-09-05T07:30:52.025Z,69.24
2022-09-05T07:33:20.821Z,67.94
2022-09-05T07:35:50.498Z,67.83
2022-09-05T07:38:50.229Z,67.25
2022-09-05T07:41:26.935Z,67.09
2022-09-05T07:44:09.109Z,67.78
2022-09-05T07:46:38.797Z,67.15
2022-09-05T07:49:09.877Z,66.68
2022-09-05T07:56:49.662Z,66.36
2022-09-05T07:57:01.149Z,66.04
2022-09-05T07:57:30.675Z,65.53
2022-09-05T08:00:06.584Z,64.59
2022-09-05T08:02:33.508Z,65.36
2022-09-05T08:05:05.841Z,64.90
2022-09-05T08:07:48.994Z,64.83
2022-09-05T08:10:35.673Z,64.35
2022-09-05T08:13:36.335Z,64.28
2022-09-05T08:16:10.421Z,63.71
2022-09-05T08:19:33.170Z,63.56
2022-09-05T08:22:02.725Z,62.83
2022-09-05T08:24:42.495Z,62.74
2022-09-05T08:27:26.368Z,63.66
2022-09-05T08:30:25.910Z,63.46
2022-09-05T08:33:10.476Z,61.90
2022-09-05T08:35:45.088Z,60.78
2022-09-05T08:38:14.764Z,60.25
2022-09-05T08:41:17.500Z,61.38
2022-09-05T08:46:36.135Z,61.55
2022-09-05T08:47:20.649Z,60.89
2022-09-05T08:50:27.038Z,59.78
2022-09-05T08:53:26.822Z,60.42
2022-09-05T08:56:13.313Z,60.67
2022-09-05T08:59:28.391Z,60.94
2022-09-05T09:02:47.207Z,59.63
2022-09-05T09:05:16.095Z,57.47
2022-09-05T09:07:53.653Z,58.33
2022-09-05T09:10:31.647Z,57.32
2022-09-05T09:13:12.626Z,56.46
2022-09-05T09:15:52.479Z,57.22
2022-09-05T09:18:21.466Z,56.47
2022-09-05T09:20:59.635Z,55.26
2022-09-05T09:23:49.468Z,56.20
2022-09-05T09:26:24.662Z,56.77
2022-09-05T09:29:08.206Z,56.09
2022-09-05T09:31:43.668Z,55.60
2022-09-05T09:34:36.691Z,55.42
2022-09-05T09:37:14.936Z,55.46
2022-09-05T09:40:09.444Z,53.98
2022-09-05T09:43:06.918Z,54.31
2022-09-05T09:46:11.685Z,54.83
2022-09-05T09:48:54.026Z,54.65
2022-09-05T09:51:30.443Z,54.35
2022-09-05T09:54:06.022Z,53.87
2022-09-05T09:57:01.821Z,54.45
2022-09-05T09:59:54.777Z,53.74
2022-09-05T10:06:28.768Z,54.25
2022-09-05T10:10:38.496Z,53.84
2022-09-05T10:10:54.449Z,54.37
2022-09-05T10:11:54.729Z,53.46
2022-09-05T10:15:31.547Z,54.47
2022-09-05T10:18:05.602Z,53.22
2022-09-05T10:20:49.690Z,53.16
2022-09-05T10:23:57.947Z,53.46
2022-09-05T10:27:02.127Z,53.06
2022-09-05T10:29:52.681Z,52.38
2022-09-05T10:35:11.368Z,52.51
2022-09-05T10:35:34.137Z,51.84
2022-09-05T10:38:20.538Z,52.55
2022-09-05T10:41:20.128Z,52.73
2022-09-05T10:43:50.853Z,53.41
2022-09-05T10:46:46.655Z,52.80
2022-09-05T10:49:08.316Z,51.59
2022-09-05T10:51:45.208Z,51.64
2022-09-05T10:54:21.548Z,51.71
2022-09-05T10:57:16.756Z,51.99
2022-09-05T11:02:21.457Z,52.46
2022-09-05T11:02:56.171Z,51.81
2022-09-05T11:05:38.550Z,51.22
2022-09-05T11:08:12.713Z,50.85
2022-09-05T11:11:01.305Z,51.78
2022-09-05T11:13:50.817Z,51.07
2022-09-05T11:16:35.394Z,51.38
2022-09-05T11:19:07.493Z,51.67
2022-09-05T11:21:48.711Z,51.34
2022-09-05T11:24:29.990Z,51.39
2022-09-05T11:27:24.899Z,50.97
2022-09-05T11:30:10.309Z,51.40
2022-09-05T11:39:46.454Z,51.39
2022-09-05T11:39:47.457Z,52.08
2022-09-05T11:40:24.933Z,52.88
2022-09-05T11:41:57.470Z,53.54
2022-09-05T11:44:36.127Z,53.90
2022-09-05T11:47:44.432Z,53.30
2022-09-05T11:50:29.809Z,52.73
2022-09-05T11:53:33.991Z,53.87
2022-09-05T11:56:31.564Z,54.01
2022-09-05T11:59:32.831Z,54.29
2022-09-05T12:02:26.556Z,54.42
2022-09-05T12:05:49.246Z,55.04
2022-09-05T12:08:28.688Z,54.78
2022-09-05T12:11:06.852Z,54.53
2022-09-05T12:13:42.838Z,54.69
2022-09-05T12:16:47.078Z,54.77
2022-09-05T12:19:22.939Z,55.19
2022-09-05T12:22:09.850Z,55.23
2022-09-05T12:27:36.722Z,54.41
2022-09-05T12:29:27.809Z,54.37
2022-09-05T12:33:07.489Z,54.61
2022-09-05T12:36:07.310Z,54.81
2022-09-05T12:40:44.685Z,54.17
2022-09-05T12:41:37.925Z,55.02
2022-09-05T12:43:23.730Z,55.18
2022-09-05T12:45:37.090Z,57.28
2022-09-05T12:48:39.272Z,58.40
2022-09-05T12:51:46.376Z,58.31
2022-09-05T12:54:27.892Z,61.03
2022-09-05T13:02:55.168Z,66.75
2022-09-05T13:03:05.379Z,73.05
2022-09-05T13:03:28.773Z,76.28
2022-09-05T13:06:11.584Z,76.60
2022-09-05T13:09:01.585Z,80.15
2022-09-05T13:14:54.223Z,82.67
2022-09-05T13:15:01.807Z,83.99
2022-09-05T13:17:30.462Z,87.56
2022-09-05T13:19:58.487Z,85.87
2022-09-05T13:22:26.378Z,82.89
2022-09-05T13:25:08.411Z,80.26
2022-09-05T13:27:41.331Z,83.04
2022-09-05T13:35:22.373Z,81.58
2022-09-05T13:38:10.928Z,80.08
2022-09-05T13:38:30.590Z,80.37
2022-09-05T13:39:14.574Z,79.05
2022-09-05T13:41:51.023Z,80.42
2022-09-05T13:44:26.208Z,79.33
2022-09-05T13:46:58.144Z,77.79
2022-09-05T13:49:32.376Z,76.00
2022-09-05T13:52:20.993Z,76.13
2022-09-05T13:54:52.311Z,76.29
2022-09-05T13:57:31.640Z,77.64
2022-09-05T14:00:28.207Z,75.83
2022-09-05T14:03:39.037Z,75.11
2022-09-05T14:06:46.645Z,75.70
2022-09-05T14:09:38.520Z,75.08
2022-09-05T14:12:17.648Z,75.56
2022-09-05T14:15:10.872Z,77.07
2022-09-05T14:18:00.339Z,77.00
2022-09-05T14:20:52.007Z,76.77
2022-09-05T14:23:22.618Z,77.23
2022-09-05T14:26:02.825Z,76.69
2022-09-05T14:28:34.099Z,76.49
2022-09-05T14:33:48.834Z,76.64
2022-09-05T14:37:48.904Z,74.38
2022-09-05T14:37:51.594Z,72.99
2022-09-05T14:40:35.433Z,71.46
2022-09-05T14:43:26.761Z,68.89
2022-09-05T14:46:14.315Z,69.39
2022-09-05T14:49:18.452Z,67.55
2022-09-05T14:51:51.757Z,65.27
2022-09-05T15:02:41.866Z,73.67
2022-09-05T15:03:00.298Z,74.66
2022-09-05T15:03:09.106Z,74.12
2022-09-05T15:05:46.041Z,72.71
2022-09-05T15:11:20.324Z,74.28
2022-09-05T15:12:24.223Z,75.82
2022-09-05T15:14:04.792Z,74.10
2022-09-05T15:16:38.079Z,74.68
2022-09-05T15:19:04.830Z,74.48
2022-09-05T15:21:35.269Z,73.78
2022-09-05T15:24:15.779Z,73.23
2022-09-05T15:27:02.631Z,71.80
2022-09-05T15:29:34.101Z,70.83
2022-09-05T15:32:22.634Z,70.29
2022-09-05T15:34:50.498Z,68.90
2022-09-05T15:37:40.579Z,68.53
2022-09-05T15:40:23.396Z,68.41
2022-09-05T15:42:54.962Z,68.59
2022-09-05T15:45:47.014Z,67.72
2022-09-05T15:48:22.075Z,66.71
2022-09-05T15:50:53.035Z,65.84
2022-09-05T15:53:29.327Z,66.51
2022-09-05T15:56:14.031Z,65.35
2022-09-05T15:58:53.762Z,65.13
2022-09-05T16:01:58.261Z,64.32
2022-09-05T16:08:56.814Z,63.55
2022-09-05T16:10:39.838Z,64.37
2022-09-05T16:10:49.989Z,64.63
2022-09-05T16:13:06.574Z,65.51
2022-09-05T16:21:09.625Z,65.76
2022-09-05T16:23:13.513Z,63.99
2022-09-05T16:23:25.130Z,63.38
2022-09-05T16:24:35.026Z,62.81
2022-09-05T16:27:37.113Z,62.48
2022-09-05T16:30:12.046Z,62.15
2022-09-05T16:32:50.952Z,61.92
2022-09-05T16:35:25.064Z,61.64
2022-09-05T16:38:24.187Z,60.46
2022-09-05T16:41:05.764Z,60.77
2022-09-05T16:43:37.680Z,62.02
2022-09-05T16:46:17.056Z,61.56
2022-09-05T16:49:02.431Z,61.98
2022-09-05T16:51:50.288Z,63.21
2022-09-05T16:54:38.526Z,62.56
2022-09-05T16:57:17.502Z,62.09
2022-09-05T16:59:45.725Z,61.54
2022-09-05T17:02:29.129Z,62.15
2022-09-05T17:05:25.689Z,62.26
2022-09-05T17:08:04.226Z,62.55
2022-09-05T17:10:43.877Z,62.78
2022-09-05T17:13:33.384Z,63.19
2022-09-05T17:16:03.095Z,63.98
2022-09-05T17:18:35.926Z,63.85
2022-09-05T17:23:22.274Z,64.43
2022-09-05T17:29:25.142Z,64.82
2022-09-05T17:29:49.042Z,65.00
2022-09-05T17:31:48.975Z,65.01
2022-09-05T17:33:44.699Z,65.91
2022-09-05T17:36:51.563Z,66.29
2022-09-05T17:39:53.900Z,66.42
2022-09-05T17:42:26.253Z,66.73
2022-09-05T17:45:12.929Z,67.05
2022-09-05T17:47:53.790Z,66.58
2022-09-05T17:50:45.200Z,67.30
2022-09-05T17:53:26.759Z,67.55
2022-09-05T17:55:55.036Z,67.84
2022-09-05T17:58:48.978Z,68.05
2022-09-05T18:01:27.115Z,68.25
2022-09-05T18:04:16.495Z,68.32
2022-09-05T18:09:41.263Z,68.30
2022-09-05T18:13:12.631Z,68.44
2022-09-05T18:15:38.886Z,68.83
2022-09-05T18:18:28.585Z,68.13
2022-09-05T18:21:21.193Z,69.19
2022-09-05T18:23:54.296Z,69.01
2022-09-05T18:26:24.543Z,69.48
2022-09-05T18:29:00.219Z,69.16
2022-09-05T18:31:41.851Z,68.77
2022-09-05T18:34:21.130Z,69.36
2022-09-05T18:36:49.366Z,69.22
2022-09-05T18:39:28.006Z,69.04
2022-09-05T18:42:25.478Z,69.14
2022-09-05T18:44:53.150Z,69.13
2022-09-05T18:47:53.348Z,69.02
2022-09-05T18:50:29.230Z,69.25
2022-09-05T18:53:09.395Z,69.54
2022-09-05T18:56:10.115Z,69.02
2022-09-05T18:58:34.311Z,69.09
2022-09-05T19:01:20.530Z,69.25
2022-09-05T19:03:52.339Z,69.30
2022-09-05T19:06:36.249Z,69.34
2022-09-05T19:09:14.053Z,69.21
2022-09-05T19:12:34.544Z,69.56
2022-09-05T19:14:59.831Z,70.23
2022-09-05T19:17:46.969Z,69.69
2022-09-05T19:20:32.803Z,69.45
2022-09-05T19:23:13.293Z,69.31
2022-09-05T19:25:52.126Z,69.49
2022-09-05T19:36:44.206Z,68.85
2022-09-05T19:36:54.260Z,69.46
2022-09-05T19:37:03.435Z,69.52
2022-09-05T19:37:32.839Z,70.15
2022-09-05T19:43:02.583Z,68.31
2022-09-05T19:47:26.645Z,69.04
2022-09-05T19:47:34.345Z,68.38
2022-09-05T19:48:27.057Z,69.27
2022-09-05T19:50:56.456Z,68.92
2022-09-05T19:53:24.427Z,69.11
2022-09-05T19:55:53.700Z,69.27
2022-09-05T19:58:22.844Z,68.57
2022-09-05T20:01:05.939Z,68.72
2022-09-05T20:03:38.621Z,68.77
2022-09-05T20:06:29.961Z,68.85
2022-09-05T20:09:30.200Z,68.19
2022-09-05T20:11:58.918Z,68.51
2022-09-05T20:14:31.323Z,67.97
2022-09-05T20:17:17.054Z,68.26
2022-09-05T20:19:44.936Z,68.38
2022-09-05T20:22:47.663Z,68.23
2022-09-05T20:25:19.813Z,68.79
2022-09-05T20:27:59.760Z,68.14
2022-09-05T20:30:34.970Z,68.63
2022-09-05T20:33:16.375Z,68.54
2022-09-05T20:41:53.849Z,68.67
2022-09-05T20:43:18.294Z,68.41
2022-09-05T20:43:35.039Z,68.22
2022-09-05T20:44:22.957Z,68.08
2022-09-05T20:53:46.494Z,68.24
2022-09-05T20:54:15.605Z,68.71
2022-09-05T20:54:25.000Z,68.15
2022-09-05T20:55:41.388Z,68.15
2022-09-05T20:58:13.027Z,67.90
2022-09-05T21:01:19.861Z,68.45
2022-09-05T21:03:45.519Z,68.66
2022-09-05T21:06:25.915Z,68.73
2022-09-05T21:08:56.079Z,68.69
2022-09-05T21:11:31.606Z,68.74
2022-09-05T21:14:02.581Z,68.57
2022-09-05T21:16:33.021Z,68.78
2022-09-05T21:18:59.731Z,68.04
2022-09-05T21:21:31.768Z,69.23
2022-09-05T21:24:00.910Z,69.39
2022-09-05T21:26:42.660Z,69.24
2022-09-05T21:29:18.224Z,68.65
2022-09-05T21:31:54.713Z,69.12
2022-09-05T21:34:28.102Z,69.43
2022-09-05T21:37:07.927Z,68.91
2022-09-05T21:39:40.414Z,69.21
2022-09-05T21:44:10.535Z,68.75
2022-09-05T21:47:37.389Z,69.41
2022-09-05T21:47:56.516Z,69.01
2022-09-05T21:50:31.526Z,69.54
2022-09-05T21:54:21.055Z,69.09
2022-09-05T21:59:17.169Z,69.21
2022-09-05T21:59:20.589Z,69.29
2022-09-05T22:01:51.536Z,69.67
2022-09-05T22:04:10.981Z,69.78
2022-09-05T22:06:37.490Z,69.41
2022-09-05T22:09:13.125Z,69.60
2022-09-05T22:11:40.729Z,69.43
2022-09-05T22:14:09.079Z,69.78
2022-09-05T22:16:44.941Z,69.13
2022-09-05T22:19:12.626Z,69.07
2022-09-05T22:21:39.979Z,69.17
2022-09-05T22:24:10.878Z,69.87
2022-09-05T22:26:54.068Z,69.39
2022-09-05T22:29:34.523Z,69.65
2022-09-05T22:32:01.433Z,69.47
2022-09-05T22:34:30.897Z,69.42
2022-09-05T22:36:57.610Z,69.00
2022-09-05T22:39:36.490Z,69.78
2022-09-05T22:42:10.116Z,69.58
2022-09-05T22:44:37.366Z,69.99
2022-09-05T22:47:05.632Z,69.62
2022-09-05T22:49:32.361Z,69.50
2022-09-05T22:51:58.936Z,69.57
2022-09-05T22:54:25.551Z,69.98
2022-09-05T22:56:52.095Z,69.58
2022-09-05T22:59:18.617Z,70.13
2022-09-05T23:01:45.223Z,69.22
2022-09-05T23:04:11.796Z,69.70
2022-09-05T23:06:38.364Z,69.55
2022-09-05T23:09:04.921Z,70.29
2022-09-05T23:11:31.475Z,70.54
2022-09-05T23:13:57.996Z,70.58
2022-09-05T23:16:24.521Z,70.16
2022-09-05T23:18:51.064Z,70.60
2022-09-05T23:21:17.620Z,70.88
2022-09-05T23:23:44.136Z,70.42
2022-09-05T23:26:12.510Z,71.11
2022-09-05T23:28:43.091Z,70.99
2022-09-05T23:31:11.334Z,71.56
2022-09-05T23:33:41.599Z,71.37
2022-09-05T23:36:10.277Z,71.71
2022-09-05T23:38:36.847Z,72.04
2022-09-05T23:41:09.737Z,72.49
2022-09-05T23:43:36.578Z,72.27
2022-09-05T23:46:04.175Z,72.46
2022-09-05T23:48:31.114Z,72.57
2022-09-05T23:51:03.840Z,72.76
2022-09-05T23:53:30.402Z,72.54
2022-09-05T23:56:01.376Z,72.87
2022-09-05T23:58:29.561Z,73.04
